TimeCST,TemperatureF,Dew PointF,Humidity,Sea Level PressureIn,VisibilityMPH,Wind Direction,Wind SpeedMPH,Gust SpeedMPH,PrecipitationIn,Events,Conditions,WindDirDegrees,DateUTC
12:15 AM,21.2,17.6,86,29.78,10.0,NW,12.7,-,N/A,,Overcast,320,2013-01-30 06:15:00
12:35 AM,21.2,17.6,86,29.77,10.0,NNW,17.3,-,N/A,,Overcast,330,2013-01-30 06:35:00
12:55 AM,19.4,14.0,80,29.76,10.0,NNW,18.4,-,N/A,,Overcast,330,2013-01-30 06:55:00
1:15 AM,17.6,14.0,86,29.76,10.0,NNW,15.0,23.0,N/A,,Overcast,330,2013-01-30 07:15:00
1:35 AM,17.6,14.0,86,29.76,10.0,NNW,15.0,20.7,N/A,,Overcast,330,2013-01-30 07:35:00
1:55 AM,17.6,12.2,79,29.74,10.0,NNW,19.6,24.2,N/A,,Overcast,330,2013-01-30 07:55:00
2:15 AM,15.8,12.2,86,29.74,10.0,NNW,17.3,-,N/A,,Overcast,330,2013-01-30 08:15:00
2:35 AM,15.8,12.2,86,29.75,10.0,NW,11.5,-,N/A,,Overcast,320,2013-01-30 08:35:00
2:55 AM,14.0,10.4,86,29.75,10.0,NNW,17.3,-,N/A,Snow,Light Snow,330,2013-01-30 08:55:00
3:15 AM,14.0,10.4,86,29.74,10.0,NW,15.0,20.7,N/A,,Overcast,320,2013-01-30 09:15:00
3:35 AM,14.0,10.4,86,29.76,10.0,NNW,13.8,-,N/A,,Overcast,330,2013-01-30 09:35:00
3:55 AM,14.0,10.4,86,29.75,10.0,NW,19.6,-,N/A,,Overcast,320,2013-01-30 09:55:00
4:15 AM,14.0,8.6,79,29.75,10.0,NW,18.4,-,N/A,,Overcast,320,2013-01-30 10:15:00
4:35 AM,12.2,8.6,85,29.75,10.0,NW,17.3,-,N/A,,Overcast,320,2013-01-30 10:35:00
4:55 AM,12.2,8.6,85,29.74,10.0,NW,19.6,24.2,N/A,,Overcast,320,2013-01-30 10:55:00
5:15 AM,12.2,8.6,85,29.74,10.0,NW,19.6,-,N/A,,Overcast,320,2013-01-30 11:15:00
5:35 AM,12.2,6.8,79,29.74,10.0,NW,19.6,-,N/A,,Overcast,320,2013-01-30 11:35:00
5:55 AM,12.2,6.8,79,29.74,10.0,NW,21.9,-,N/A,,Overcast,320,2013-01-30 11:55:00
6:15 AM,12.2,6.8,79,29.74,10.0,NW,19.6,24.2,N/A,,Overcast,320,2013-01-30 12:15:00
6:35 AM,12.2,6.8,79,29.73,10.0,NW,17.3,25.3,N/A,,Overcast,320,2013-01-30 12:35:00
7:15 AM,10.4,5.0,79,29.73,10.0,NNW,16.1,-,N/A,Snow,Light Snow,330,2013-01-30 13:15:00
7:35 AM,10.4,5.0,79,29.73,10.0,NW,19.6,-,N/A,,Overcast,320,2013-01-30 13:35:00
7:55 AM,10.4,5.0,79,29.73,7.0,NW,20.7,25.3,N/A,,Overcast,320,2013-01-30 13:55:00
8:15 AM,10.4,5.0,79,29.72,10.0,NW,18.4,23.0,N/A,,Overcast,320,2013-01-30 14:15:00
8:35 AM,10.4,5.0,79,29.72,10.0,NNW,19.6,-,N/A,,Overcast,330,2013-01-30 14:35:00
8:55 AM,10.4,5.0,79,29.72,10.0,NW,19.6,25.3,N/A,,Overcast,320,2013-01-30 14:55:00
9:15 AM,10.4,5.0,79,29.73,7.0,NW,19.6,24.2,N/A,,Overcast,320,2013-01-30 15:15:00
9:35 AM,10.4,5.0,79,29.73,7.0,NW,18.4,21.9,N/A,Snow,Light Snow,320,2013-01-30 15:35:00
9:55 AM,10.4,5.0,79,29.73,10.0,NW,15.0,21.9,N/A,,Overcast,320,2013-01-30 15:55:00
10:15 AM,10.4,5.0,79,29.74,10.0,NW,15.0,21.9,N/A,,Overcast,320,2013-01-30 16:15:00
10:35 AM,10.4,5.0,79,29.75,10.0,NW,15.0,23.0,N/A,,Overcast,320,2013-01-30 16:35:00
10:55 AM,10.4,5.0,79,29.75,10.0,NW,17.3,20.7,N/A,,Overcast,320,2013-01-30 16:55:00
11:15 AM,10.4,5.0,79,29.75,10.0,NW,13.8,-,N/A,,Overcast,320,2013-01-30 17:15:00
11:35 AM,12.2,5.0,73,29.75,10.0,NW,18.4,23.0,N/A,,Overcast,310,2013-01-30 17:35:00
11:55 AM,10.4,5.0,79,29.73,7.0,NW,19.6,23.0,N/A,,Overcast,320,2013-01-30 17:55:00
12:15 PM,12.2,5.0,73,29.72,10.0,NW,13.8,21.9,N/A,,Overcast,320,2013-01-30 18:15:00
12:35 PM,12.2,5.0,73,29.72,10.0,NW,16.1,-,N/A,,Overcast,320,2013-01-30 18:35:00
12:55 PM,12.2,5.0,73,29.72,10.0,NW,16.1,-,N/A,,Overcast,310,2013-01-30 18:55:00
1:15 PM,12.2,5.0,73,29.72,10.0,NW,17.3,23.0,N/A,,Overcast,310,2013-01-30 19:15:00
1:35 PM,12.2,5.0,73,29.72,7.0,WNW,17.3,-,N/A,,Overcast,300,2013-01-30 19:35:00
1:55 PM,10.4,5.0,79,29.71,7.0,NW,17.3,-,N/A,,Overcast,310,2013-01-30 19:55:00
2:15 PM,10.4,5.0,79,29.71,10.0,NW,16.1,-,N/A,,Overcast,310,2013-01-30 20:15:00
2:35 PM,12.2,5.0,73,29.71,10.0,NW,20.7,-,N/A,,Overcast,320,2013-01-30 20:35:00
2:55 PM,10.4,5.0,79,29.71,10.0,NW,19.6,25.3,N/A,,Overcast,310,2013-01-30 20:55:00
3:15 PM,10.4,5.0,79,29.72,10.0,WNW,19.6,24.2,N/A,,Overcast,300,2013-01-30 21:15:00
3:35 PM,10.4,5.0,79,29.72,10.0,NW,19.6,24.2,N/A,,Overcast,320,2013-01-30 21:35:00
3:55 PM,10.4,5.0,79,29.72,10.0,NW,19.6,-,N/A,,Overcast,310,2013-01-30 21:55:00
4:15 PM,10.4,3.2,73,29.72,10.0,NW,17.3,-,N/A,,Overcast,310,2013-01-30 22:15:00
4:35 PM,10.4,3.2,73,29.73,10.0,NW,18.4,-,N/A,,Overcast,310,2013-01-30 22:35:00
4:55 PM,10.4,3.2,73,29.73,10.0,NW,17.3,-,N/A,,Overcast,310,2013-01-30 22:55:00
5:15 PM,10.4,3.2,73,29.73,10.0,NW,16.1,21.9,N/A,,Overcast,310,2013-01-30 23:15:00
5:35 PM,8.6,3.2,79,29.73,4.0,NW,18.4,25.3,N/A,,Haze,310,2013-01-30 23:35:00
5:55 PM,8.6,3.2,79,29.73,5.0,NW,20.7,27.6,N/A,,Haze,320,2013-01-30 23:55:00
6:15 PM,8.6,3.2,79,29.73,10.0,NW,17.3,23.0,N/A,,Overcast,310,2013-01-31 00:15:00
6:35 PM,8.6,3.2,79,29.74,10.0,NW,13.8,23.0,N/A,,Overcast,310,2013-01-31 00:35:00
6:55 PM,8.6,1.4,73,29.73,10.0,NW,19.6,-,N/A,,Overcast,320,2013-01-31 00:55:00
7:15 PM,8.6,3.2,79,29.73,10.0,NW,11.5,-,N/A,,Overcast,320,2013-01-31 01:15:00
7:35 PM,8.6,3.2,79,29.74,10.0,WNW,18.4,-,N/A,,Overcast,300,2013-01-31 01:35:00
7:55 PM,8.6,1.4,73,29.74,10.0,WNW,13.8,18.4,N/A,,Overcast,300,2013-01-31 01:55:00
8:15 PM,8.6,1.4,73,29.74,10.0,WNW,13.8,23.0,N/A,,Overcast,300,2013-01-31 02:15:00
8:35 PM,6.8,1.4,79,29.74,10.0,NW,15.0,20.7,N/A,,Overcast,310,2013-01-31 02:35:00
8:55 PM,5.0,1.4,85,29.75,7.0,WNW,16.1,21.9,N/A,,Overcast,290,2013-01-31 02:55:00
9:15 PM,5.0,1.4,85,29.75,7.0,WNW,16.1,21.9,N/A,,Overcast,300,2013-01-31 03:15:00
9:35 PM,5.0,-0.4,78,29.75,5.0,WNW,17.3,25.3,N/A,,Haze,300,2013-01-31 03:35:00
10:15 PM,3.2,-0.4,85,29.76,10.0,WNW,13.8,20.7,N/A,,Overcast,300,2013-01-31 04:15:00
10:35 PM,3.2,-2.2,78,29.77,10.0,WNW,16.1,21.9,N/A,,Overcast,300,2013-01-31 04:35:00
10:55 PM,3.2,-2.2,78,29.77,10.0,NW,16.1,-,N/A,,Overcast,310,2013-01-31 04:55:00
11:15 PM,3.2,-2.2,78,29.77,10.0,NW,13.8,-,N/A,,Overcast,310,2013-01-31 05:15:00
11:35 PM,3.2,-4.0,72,29.77,10.0,NW,17.3,-,N/A,,Overcast,310,2013-01-31 05:35:00
11:55 PM,3.2,-4.0,72,29.77,10.0,NW,15.0,25.3,N/A,,Overcast,310,2013-01-31 05:55:00